Terminal Aerodrome Forecast
Issued by NWS

Home | Current Version | Previous Version | Text Only | Print | Product List | Glossary On
Versions: 1 2 3 4 5 6 7 8 9 10 11 12 13 14 15 16 17 18 19 20 21 22 23 24 25 26 27
578
FTUS43 KSGF 240701 AAA
TAFJLN
TAF AMD
KJLN 240701Z 2407/2506 21016KT P6SM SCT015 WS020/19045KT
     FM240900 30017G24KT P6SM BKN015
     FM241100 32015G25KT P6SM OVC010
     FM241800 28015G22KT P6SM SCT025 BKN250
     FM242200 30015G22KT P6SM OVC040=

USA.gov is the U.S. government's official web portal to all federal, state and local government web resources and services.